Time;durP1;ratioP1;P1;durP2;ratioP2;P2;SDS_P1;SDS_P2;PMS_P1;PMS_P2;Temp;Humidity;BMP_temperature;BMP_pressure;BME280_temperature;BME280_humidity;BME280_pressure;Samples;Min_cycle;Max_cycle;Signal;HPM_P1;HPM_P2
2022/11/24 13:29:00;;;;;;;;;18.75;17.50;;;;;;;;4320250;31;2193334;-50
2022/11/24 13:31:45;;;;;;;;;19.00;19.00;;;;;;;;5117883;27;51070;-48
2022/11/24 13:34:38;;;;;;;;;19.00;17.75;;;;;;;;5125086;27;51346;-50
2022/11/24 13:37:25;;;;;;;;;17.75;16.50;;;;;;;;5137786;27;51314;-51
2022/11/24 13:40:12;;;;;;;;;22.25;19.75;;;;;;;;5138467;27;51472;-50
2022/11/24 13:42:59;;;;;;;;;26.00;21.00;;;;;;;;5137835;27;51397;-53
2022/11/24 13:45:48;;;;;;;;;20.25;17.75;;;;;;;;5103264;27;51513;-49
2022/11/24 13:48:32;;;;;;;;;21.25;17.00;;;;;;;;5117278;27;51249;-47
2022/11/24 13:51:22;;;;;;;;;17.25;15.75;;;;;;;;5123235;27;51531;-48
2022/11/24 13:54:09;;;;;;;;;19.50;18.50;;;;;;;;5137135;27;51124;-48
2022/11/24 13:57:13;;;;;;;;;19.50;17.00;;;;;;;;5138325;27;51066;-51
2022/11/24 14:00:01;;;;;;;;;17.25;16.25;;;;;;;;5137470;27;51409;-48
2022/11/24 14:02:46;;;;;;;;;20.50;17.00;;;;;;;;5116423;27;51773;-53
2022/11/24 14:05:36;;;;;;;;;22.50;19.00;;;;;;;;5134028;27;51156;-53
2022/11/24 14:08:24;;;;;;;;;21.00;18.50;;;;;;;;5137684;27;51054;-50
2022/11/24 14:11:13;;;;;;;;;25.00;22.25;;;;;;;;5137777;27;52367;-50
2022/11/24 14:13:57;;;;;;;;;22.00;20.25;;;;;;;;5137757;27;51183;-51
2022/11/24 14:16:41;;;;;;;;;22.25;19.50;;;;;;;;5137594;27;51457;-52
2022/11/24 14:19:26;;;;;;;;;20.00;17.50;;;;;;;;5137560;27;51095;-50
2022/11/24 14:22:16;;;;;;;;;17.75;16.25;;;;;;;;5138048;27;51138;-50
2022/11/24 14:25:01;;;;;;;;;20.25;16.75;;;;;;;;5137712;27;51638;-54
2022/11/24 14:27:45;;;;;;;;;18.25;18.25;;;;;;;;5134760;27;50998;-52
2022/11/24 14:30:30;;;;;;;;;18.75;16.75;;;;;;;;5123972;27;51395;-49
2022/11/24 14:33:17;;;;;;;;;16.75;14.75;;;;;;;;5123415;27;51073;-51
2022/11/24 14:36:01;;;;;;;;;18.75;16.00;;;;;;;;5123495;27;51216;-51
2022/11/24 14:38:46;;;;;;;;;17.75;15.50;;;;;;;;5114458;27;51809;-50
2022/11/24 14:41:31;;;;;;;;;17.00;16.00;;;;;;;;5118835;27;51774;-48
2022/11/24 14:44:18;;;;;;;;;19.00;17.25;;;;;;;;5123423;27;51151;-50
2022/11/24 14:47:04;;;;;;;;;23.50;17.75;;;;;;;;5123553;27;51111;-50
2022/11/24 14:49:49;;;;;;;;;20.00;18.00;;;;;;;;5107197;27;51462;-52
2022/11/24 14:52:34;;;;;;;;;16.75;14.50;;;;;;;;5123126;27;51194;-50
2022/11/24 14:55:29;;;;;;;;;16.50;14.25;;;;;;;;5123161;27;51198;-51
2022/11/24 14:58:28;;;;;;;;;17.25;16.25;;;;;;;;5122650;27;51017;-50
2022/11/24 15:01:34;;;;;;;;;15.00;15.00;;;;;;;;5116109;27;52237;-49
2022/11/24 15:04:24;;;;;;;;;21.75;19.75;;;;;;;;5120173;27;51570;-51
2022/11/24 15:07:23;;;;;;;;;20.50;17.25;;;;;;;;5115995;27;52320;-51
2022/11/24 15:10:18;;;;;;;;;21.50;19.25;;;;;;;;5120513;27;51167;-50
2022/11/24 15:13:04;;;;;;;;;23.50;21.25;;;;;;;;5106275;27;51218;-52
2022/11/24 15:15:59;;;;;;;;;28.25;24.50;;;;;;;;5102002;27;51560;-51
2022/11/24 15:18:47;;;;;;;;;26.00;20.25;;;;;;;;5117341;27;51133;-54
2022/11/24 15:21:33;;;;;;;;;22.25;22.25;;;;;;;;5122148;27;51524;-50
2022/11/24 15:24:18;;;;;;;;;25.50;23.50;;;;;;;;5121236;27;51148;-51
2022/11/24 15:27:02;;;;;;;;;26.75;25.00;;;;;;;;5107001;27;51175;-47
2022/11/24 15:29:46;;;;;;;;;16.75;16.75;;;;;;;;5101785;27;51087;-51
2022/11/24 15:32:31;;;;;;;;;25.25;23.00;;;;;;;;5120543;27;51199;-53
2022/11/24 15:35:15;;;;;;;;;20.00;20.00;;;;;;;;5122547;27;51151;-50
2022/11/24 15:38:00;;;;;;;;;21.25;19.75;;;;;;;;5122433;27;50967;-50
2022/11/24 15:40:45;;;;;;;;;21.50;20.00;;;;;;;;5087726;27;51740;-50
2022/11/24 15:43:31;;;;;;;;;24.50;21.50;;;;;;;;5106669;27;51132;-50
2022/11/24 15:46:16;;;;;;;;;20.00;20.00;;;;;;;;5108591;27;51019;-48
2022/11/24 15:49:00;;;;;;;;;18.25;16.25;;;;;;;;5103589;27;51050;-49
2022/11/24 15:51:46;;;;;;;;;23.00;21.75;;;;;;;;5112353;27;51059;-50
2022/11/24 15:54:30;;;;;;;;;28.00;27.00;;;;;;;;5109496;27;51096;-49
2022/11/24 15:57:14;;;;;;;;;31.00;29.00;;;;;;;;5107583;27;51487;-50
2022/11/24 15:59:59;;;;;;;;;41.50;32.25;;;;;;;;5106339;27;51135;-52
2022/11/24 16:02:43;;;;;;;;;40.25;29.50;;;;;;;;5109016;27;51176;-48
2022/11/24 16:05:27;;;;;;;;;23.50;23.50;;;;;;;;5107235;27;51086;-45
2022/11/24 16:08:12;;;;;;;;;24.75;24.25;;;;;;;;5106175;27;51219;-54
2022/11/24 16:10:57;;;;;;;;;29.25;25.50;;;;;;;;5099712;27;51042;-51
2022/11/24 16:13:41;;;;;;;;;31.00;24.75;;;;;;;;5106152;27;51171;-49
2022/11/24 16:16:26;;;;;;;;;31.00;26.75;;;;;;;;5107690;27;51046;-50
2022/11/24 16:19:11;;;;;;;;;50.75;40.00;;;;;;;;5105988;27;51428;-50
2022/11/24 16:21:55;;;;;;;;;53.25;43.25;;;;;;;;5106390;27;51083;-49
2022/11/24 16:24:39;;;;;;;;;55.75;44.75;;;;;;;;5100679;27;51046;-52
2022/11/24 16:27:24;;;;;;;;;33.25;30.00;;;;;;;;5106405;27;51116;-50
2022/11/24 16:30:10;;;;;;;;;35.00;30.00;;;;;;;;5105262;27;51159;-48
2022/11/24 16:32:55;;;;;;;;;32.75;27.75;;;;;;;;5103251;27;51168;-51
2022/11/24 16:35:39;;;;;;;;;29.50;25.00;;;;;;;;5108207;27;51090;-48
2022/11/24 16:38:23;;;;;;;;;31.25;28.25;;;;;;;;5102795;27;51058;-51
2022/11/24 16:41:09;;;;;;;;;35.50;29.25;;;;;;;;5103276;27;51011;-50
2022/11/24 16:43:53;;;;;;;;;28.50;22.50;;;;;;;;5105585;27;51092;-51
2022/11/24 16:46:38;;;;;;;;;33.00;27.75;;;;;;;;5104623;27;51161;-50
2022/11/24 16:49:22;;;;;;;;;26.25;22.25;;;;;;;;5105368;27;51034;-49
2022/11/24 16:52:07;;;;;;;;;30.25;25.25;;;;;;;;5107999;27;51093;-50
2022/11/24 16:54:51;;;;;;;;;29.25;27.25;;;;;;;;5104727;27;51146;-53
2022/11/24 16:57:36;;;;;;;;;32.00;26.00;;;;;;;;5105679;27;51151;-49
2022/11/24 17:00:20;;;;;;;;;28.00;27.50;;;;;;;;5108518;27;51514;-48
2022/11/24 17:03:05;;;;;;;;;25.75;25.75;;;;;;;;5106184;27;51048;-51
2022/11/24 17:05:56;;;;;;;;;29.00;25.75;;;;;;;;5104976;27;51220;-49
2022/11/24 17:08:41;;;;;;;;;28.50;26.50;;;;;;;;5107432;27;51927;-49
2022/11/24 17:11:27;;;;;;;;;29.00;26.25;;;;;;;;5107182;27;51459;-53
2022/11/24 17:14:11;;;;;;;;;34.75;28.75;;;;;;;;5105772;27;52181;-51
2022/11/24 17:16:56;;;;;;;;;24.25;20.75;;;;;;;;5104265;27;51095;-50
2022/11/24 17:19:41;;;;;;;;;23.25;23.25;;;;;;;;5103597;27;51624;-51
2022/11/24 17:22:25;;;;;;;;;28.00;26.00;;;;;;;;5105517;27;51185;-49
2022/11/24 17:25:10;;;;;;;;;31.00;26.25;;;;;;;;5103098;27;51545;-51
2022/11/24 17:27:54;;;;;;;;;32.50;25.50;;;;;;;;5105174;27;51231;-48
2022/11/24 17:30:38;;;;;;;;;20.50;18.25;;;;;;;;5103113;27;51203;-50
2022/11/24 17:33:23;;;;;;;;;23.75;20.00;;;;;;;;5105344;27;51242;-50
2022/11/24 17:36:08;;;;;;;;;23.00;19.75;;;;;;;;5108008;27;51179;-51
2022/11/24 17:38:52;;;;;;;;;33.00;28.25;;;;;;;;5103623;27;51240;-50
2022/11/24 17:41:37;;;;;;;;;31.75;27.75;;;;;;;;5102918;27;51051;-50
2022/11/24 17:44:21;;;;;;;;;21.75;21.75;;;;;;;;5099254;27;51490;-51
2022/11/24 17:47:05;;;;;;;;;17.00;16.25;;;;;;;;5108749;27;51196;-49
2022/11/24 17:49:50;;;;;;;;;21.75;21.00;;;;;;;;5103012;27;51422;-49
2022/11/24 17:52:34;;;;;;;;;27.00;25.25;;;;;;;;5101616;27;51172;-49
2022/11/24 17:55:19;;;;;;;;;27.75;22.25;;;;;;;;5105010;27;51219;-51
2022/11/24 17:58:03;;;;;;;;;25.25;22.75;;;;;;;;5095581;27;51300;-49
2022/11/24 18:00:49;;;;;;;;;32.75;28.50;;;;;;;;5102142;27;51265;-52
2022/11/24 18:03:34;;;;;;;;;36.00;29.75;;;;;;;;5105707;27;51152;-50
2022/11/24 18:06:19;;;;;;;;;36.00;31.25;;;;;;;;5100735;27;51157;-51
2022/11/24 18:09:05;;;;;;;;;34.00;28.25;;;;;;;;5097913;27;51598;-51
2022/11/24 18:11:50;;;;;;;;;30.00;27.25;;;;;;;;5105254;27;51298;-49
2022/11/24 18:14:35;;;;;;;;;38.00;31.25;;;;;;;;5094130;27;51581;-50
2022/11/24 18:17:19;;;;;;;;;30.00;29.50;;;;;;;;5106016;27;51363;-50
2022/11/24 18:20:04;;;;;;;;;28.50;26.50;;;;;;;;5103530;27;51081;-51
2022/11/24 18:22:49;;;;;;;;;36.50;31.00;;;;;;;;5103837;27;51188;-53
2022/11/24 18:25:35;;;;;;;;;35.75;31.75;;;;;;;;5105965;27;51168;-53
2022/11/24 18:28:20;;;;;;;;;35.50;29.50;;;;;;;;5108093;27;51637;-54
2022/11/24 18:31:06;;;;;;;;;30.25;26.25;;;;;;;;5108679;27;51260;-52
2022/11/24 18:33:50;;;;;;;;;26.00;24.75;;;;;;;;5110089;27;51543;-51
2022/11/24 18:36:34;;;;;;;;;28.00;24.00;;;;;;;;5106185;27;51625;-49
2022/11/24 18:39:19;;;;;;;;;33.50;28.75;;;;;;;;5105304;27;51115;-53
2022/11/24 18:42:03;;;;;;;;;27.00;24.75;;;;;;;;5118497;27;51250;-57
2022/11/24 18:44:47;;;;;;;;;21.25;18.00;;;;;;;;5123680;27;51183;-51
2022/11/24 18:47:32;;;;;;;;;30.75;24.75;;;;;;;;5121428;27;51179;-52
2022/11/24 18:50:17;;;;;;;;;28.75;23.75;;;;;;;;5105971;27;51526;-49
2022/11/24 18:53:01;;;;;;;;;27.50;23.50;;;;;;;;5112885;27;51148;-51
2022/11/24 18:55:56;;;;;;;;;28.25;23.75;;;;;;;;5106306;27;51124;-51
2022/11/24 18:58:41;;;;;;;;;25.00;23.75;;;;;;;;5102124;27;51143;-51
2022/11/24 19:01:27;;;;;;;;;33.25;31.25;;;;;;;;5112580;27;51381;-49
2022/11/24 19:04:12;;;;;;;;;31.75;29.25;;;;;;;;5111165;27;51532;-50
2022/11/24 19:06:56;;;;;;;;;27.00;24.50;;;;;;;;5109190;27;51044;-49
2022/11/24 19:12:37;;;;;;;;;25.25;21.75;;;;;;;;5018497;28;51201;-51
2022/11/24 19:15:21;;;;;;;;;35.75;29.50;;;;;;;;5016349;28;51348;-52
2022/11/24 19:20:54;;;;;;;;;35.00;30.50;;;;;;;;4959343;28;51049;-50
2022/11/24 19:23:38;;;;;;;;;30.00;28.00;;;;;;;;4958593;28;51378;-50
2022/11/24 19:26:22;;;;;;;;;36.50;29.00;;;;;;;;4957598;28;51114;-51
2022/11/24 19:29:07;;;;;;;;;34.25;29.00;;;;;;;;4974184;28;51466;-53
2022/11/24 19:31:53;;;;;;;;;30.00;24.25;;;;;;;;4976760;28;51116;-50
2022/11/24 19:34:38;;;;;;;;;25.75;23.50;;;;;;;;4977479;28;51187;-52
2022/11/24 19:37:22;;;;;;;;;24.25;23.00;;;;;;;;4976847;28;51198;-51
2022/11/24 19:42:52;;;;;;;;;21.75;19.50;;;;;;;;4938621;28;51180;-50
2022/11/24 19:45:42;;;;;;;;;23.75;21.75;;;;;;;;4931987;28;51059;-52
2022/11/24 19:48:33;;;;;;;;;23.25;21.25;;;;;;;;4900381;28;51444;-53
2022/11/24 19:51:19;;;;;;;;;21.25;19.00;;;;;;;;4934650;28;51240;-54
2022/11/24 19:54:05;;;;;;;;;22.00;20.00;;;;;;;;4934477;28;51556;-49
2022/11/24 19:56:51;;;;;;;;;22.25;21.75;;;;;;;;4929869;28;51162;-52
2022/11/24 19:59:36;;;;;;;;;23.00;20.00;;;;;;;;5011381;28;51144;-54
2022/11/24 20:02:20;;;;;;;;;22.50;19.75;;;;;;;;5009895;28;51316;-53
2022/11/24 20:05:05;;;;;;;;;26.75;24.50;;;;;;;;5011498;28;51399;-47
2022/11/24 20:07:49;;;;;;;;;19.00;16.75;;;;;;;;5011383;28;51120;-50
2022/11/24 20:10:33;;;;;;;;;27.50;25.50;;;;;;;;5008531;28;51197;-49
2022/11/24 20:13:18;;;;;;;;;21.50;21.50;;;;;;;;5010561;28;51465;-51
2022/11/24 20:16:07;;;;;;;;;44.75;37.75;;;;;;;;5012110;28;51153;-51
2022/11/24 20:18:53;;;;;;;;;42.00;34.75;;;;;;;;4998162;28;51594;-52
2022/11/24 20:21:38;;;;;;;;;25.50;20.50;;;;;;;;5084456;27;51413;-54
2022/11/24 20:24:23;;;;;;;;;33.50;29.00;;;;;;;;5085703;27;51066;-52
2022/11/24 20:27:08;;;;;;;;;33.25;26.50;;;;;;;;5084839;27;51107;-51
2022/11/24 20:29:52;;;;;;;;;32.00;28.75;;;;;;;;5085588;27;51549;-50
2022/11/24 20:32:36;;;;;;;;;23.25;21.25;;;;;;;;5086618;27;51030;-48
2022/11/24 20:35:21;;;;;;;;;24.50;20.25;;;;;;;;5085601;27;50981;-51
2022/11/24 20:38:05;;;;;;;;;26.50;21.75;;;;;;;;5087982;27;51046;-54
2022/11/24 20:40:50;;;;;;;;;26.00;20.00;;;;;;;;5085322;27;51169;-50
2022/11/24 20:43:49;;;;;;;;;20.50;16.25;;;;;;;;5071202;27;51648;-52
2022/11/24 20:46:34;;;;;;;;;25.25;22.00;;;;;;;;5045557;28;51195;-47
2022/11/24 20:49:19;;;;;;;;;29.75;28.50;;;;;;;;5042518;28;51463;-52
2022/11/24 20:52:03;;;;;;;;;21.50;19.75;;;;;;;;5043680;28;51214;-53
2022/11/24 20:54:47;;;;;;;;;26.00;21.25;;;;;;;;5043824;28;51175;-52
2022/11/24 20:57:31;;;;;;;;;27.25;23.50;;;;;;;;5057777;27;51092;-49
2022/11/24 21:00:16;;;;;;;;;49.25;38.50;;;;;;;;5043441;28;51207;-49
2022/11/24 21:03:00;;;;;;;;;25.00;21.75;;;;;;;;5043835;28;51206;-51
2022/11/24 21:05:44;;;;;;;;;23.50;19.75;;;;;;;;5055315;27;51111;-50
2022/11/24 21:08:32;;;;;;;;;43.00;32.50;;;;;;;;5071060;27;51198;-51
2022/11/24 21:11:18;;;;;;;;;33.25;26.25;;;;;;;;5056505;27;51363;-48
2022/11/24 21:14:03;;;;;;;;;24.25;20.75;;;;;;;;5077000;27;51050;-47
2022/11/24 21:16:47;;;;;;;;;48.25;37.50;;;;;;;;5076229;28;51117;-47
2022/11/24 21:19:31;;;;;;;;;37.00;30.25;;;;;;;;5086614;27;51433;-51
2022/11/24 21:22:15;;;;;;;;;26.00;20.75;;;;;;;;5100017;27;51147;-53
2022/11/24 21:25:00;;;;;;;;;40.50;31.75;;;;;;;;5099997;27;51125;-52
2022/11/24 21:27:44;;;;;;;;;43.75;34.25;;;;;;;;5099898;27;51346;-52
2022/11/24 21:30:29;;;;;;;;;25.50;21.50;;;;;;;;5100047;27;51078;-53
2022/11/24 21:33:13;;;;;;;;;35.50;26.50;;;;;;;;5099643;27;51045;-48
2022/11/24 21:36:01;;;;;;;;;29.00;28.00;;;;;;;;5100097;27;51201;-48
2022/11/24 21:38:54;;;;;;;;;27.75;22.50;;;;;;;;5060076;28;51955;-52
2022/11/24 21:41:39;;;;;;;;;35.75;29.25;;;;;;;;5060395;28;52132;-50
2022/11/24 21:44:24;;;;;;;;;37.00;31.75;;;;;;;;5060452;28;51165;-50
2022/11/24 21:47:08;;;;;;;;;38.25;32.25;;;;;;;;5060489;28;51099;-48
2022/11/24 21:49:52;;;;;;;;;37.75;31.25;;;;;;;;5060733;28;51178;-51
2022/11/24 21:52:36;;;;;;;;;28.00;26.50;;;;;;;;5060343;28;51294;-48
2022/11/24 21:55:20;;;;;;;;;34.00;26.75;;;;;;;;5060541;28;51200;-52
2022/11/24 21:58:05;;;;;;;;;24.50;19.00;;;;;;;;5080261;27;51105;-51
2022/11/24 22:00:49;;;;;;;;;25.25;21.00;;;;;;;;5080649;27;51167;-50
2022/11/24 22:03:33;;;;;;;;;21.75;20.00;;;;;;;;5080510;27;51554;-48
2022/11/24 22:06:18;;;;;;;;;18.50;16.25;;;;;;;;5080568;27;51242;-52
2022/11/24 22:09:02;;;;;;;;;22.50;18.25;;;;;;;;5074845;27;51019;-54
2022/11/24 22:11:51;;;;;;;;;22.50;20.75;;;;;;;;5058135;28;51242;-50
2022/11/24 22:14:36;;;;;;;;;23.75;20.00;;;;;;;;5060466;28;51154;-49
2022/11/24 22:17:20;;;;;;;;;22.00;20.75;;;;;;;;5122889;27;51432;-50
2022/11/24 22:20:04;;;;;;;;;18.75;17.50;;;;;;;;5123995;27;51045;-49
2022/11/24 22:22:49;;;;;;;;;18.00;16.25;;;;;;;;5124072;27;51484;-48
2022/11/24 22:25:34;;;;;;;;;21.75;20.75;;;;;;;;5123873;27;50970;-51
2022/11/24 22:28:18;;;;;;;;;25.50;21.00;;;;;;;;5123580;27;50980;-54
2022/11/24 22:31:03;;;;;;;;;23.25;21.00;;;;;;;;5123602;27;51187;-51
2022/11/24 22:33:48;;;;;;;;;21.50;16.25;;;;;;;;5123469;27;51503;-49
2022/11/24 22:36:32;;;;;;;;;30.50;27.25;;;;;;;;5123381;27;51120;-50
2022/11/24 22:39:17;;;;;;;;;28.75;24.50;;;;;;;;5124062;27;51093;-52
2022/11/24 22:42:01;;;;;;;;;15.50;13.75;;;;;;;;5123196;27;51209;-51
2022/11/24 22:44:46;;;;;;;;;18.00;17.25;;;;;;;;5123573;27;51152;-47
2022/11/24 22:47:30;;;;;;;;;26.75;23.00;;;;;;;;5109350;27;51140;-49
2022/11/24 22:50:14;;;;;;;;;22.00;20.75;;;;;;;;5102486;27;51103;-49
2022/11/24 22:52:59;;;;;;;;;28.00;22.00;;;;;;;;5104210;27;51147;-51
2022/11/24 22:55:43;;;;;;;;;27.00;24.00;;;;;;;;5121440;27;51237;-51
2022/11/24 22:58:28;;;;;;;;;22.75;19.00;;;;;;;;5122980;27;51153;-51
2022/11/24 23:01:17;;;;;;;;;24.00;19.00;;;;;;;;5123185;27;51010;-48
2022/11/24 23:04:02;;;;;;;;;20.50;18.50;;;;;;;;5123587;27;51040;-52
2022/11/24 23:06:46;;;;;;;;;24.00;21.25;;;;;;;;5122855;27;51164;-52
2022/11/24 23:09:31;;;;;;;;;24.75;21.25;;;;;;;;5119118;27;51181;-46
2022/11/24 23:12:17;;;;;;;;;29.75;23.75;;;;;;;;5122170;27;51123;-50
2022/11/24 23:15:01;;;;;;;;;27.25;22.75;;;;;;;;5123193;27;51111;-49
2022/11/24 23:17:45;;;;;;;;;27.00;21.50;;;;;;;;5111129;27;51072;-52
2022/11/24 23:20:30;;;;;;;;;23.00;18.00;;;;;;;;5102368;27;51088;-53
2022/11/24 23:23:14;;;;;;;;;22.00;19.00;;;;;;;;5118443;27;51489;-51
2022/11/24 23:26:06;;;;;;;;;26.00;17.25;;;;;;;;5122415;27;51130;-49
2022/11/24 23:28:51;;;;;;;;;23.25;20.00;;;;;;;;5122747;27;51108;-52
2022/11/24 23:31:38;;;;;;;;;23.50;21.75;;;;;;;;5106910;27;51565;-50
2022/11/24 23:34:22;;;;;;;;;20.75;20.00;;;;;;;;5122674;27;51159;-49
2022/11/24 23:37:07;;;;;;;;;27.25;20.75;;;;;;;;5122256;27;51170;-48
2022/11/24 23:39:51;;;;;;;;;25.25;20.50;;;;;;;;5122819;27;51132;-51
2022/11/24 23:42:35;;;;;;;;;23.00;21.50;;;;;;;;5122489;27;51174;-51
2022/11/24 23:45:20;;;;;;;;;25.25;22.25;;;;;;;;5122534;27;51395;-53
2022/11/24 23:48:07;;;;;;;;;20.50;18.75;;;;;;;;5122097;27;51607;-51
2022/11/24 23:50:51;;;;;;;;;25.00;21.00;;;;;;;;5122116;27;51162;-51
2022/11/24 23:53:36;;;;;;;;;24.00;21.75;;;;;;;;5122461;27;51428;-52
2022/11/24 23:56:21;;;;;;;;;25.50;24.00;;;;;;;;5121904;27;51591;-51
2022/11/24 23:59:09;;;;;;;;;22.00;21.25;;;;;;;;5121778;27;51165;-53
